createdAt,value
2022-10-04T00:01:49.243Z,16.69
2022-10-04T00:07:16.896Z,17.31
2022-10-04T00:12:35.940Z,15.46
2022-10-04T00:17:39.174Z,14.21
2022-10-04T00:23:20.562Z,13.79
2022-10-04T00:28:26.359Z,16.14
2022-10-04T00:33:52.543Z,17.40
2022-10-04T00:39:16.819Z,16.32
2022-10-04T00:44:28.362Z,14.71
2022-10-04T00:49:41.257Z,14.84
2022-10-04T00:54:57.163Z,16.95
2022-10-04T01:00:08.714Z,17.67
2022-10-04T01:05:17.558Z,16.08
2022-10-04T01:10:27.607Z,14.68
2022-10-04T01:15:45.559Z,13.82
2022-10-04T01:20:48.403Z,14.91
2022-10-04T01:25:52.119Z,16.93
2022-10-04T01:30:55.161Z,17.44
2022-10-04T01:35:58.497Z,15.73
2022-10-04T01:41:05.083Z,14.47
2022-10-04T01:46:17.563Z,14.67
2022-10-04T01:51:28.850Z,16.90
2022-10-04T01:56:46.821Z,17.45
2022-10-04T02:02:09.357Z,15.69
2022-10-04T02:07:15.585Z,14.39
2022-10-04T02:12:20.034Z,13.65
2022-10-04T02:17:31.687Z,15.16
2022-10-04T02:22:34.708Z,17.10
2022-10-04T02:27:37.635Z,17.31
2022-10-04T02:33:02.786Z,15.57
2022-10-04T02:38:22.393Z,14.34
2022-10-04T02:43:39.652Z,15.14
2022-10-04T02:49:02.583Z,17.13
2022-10-04T02:54:52.838Z,17.16
2022-10-04T03:00:25.349Z,15.18
2022-10-04T03:05:28.995Z,14.03
2022-10-04T03:10:32.564Z,14.30
2022-10-04T03:15:35.738Z,16.49
2022-10-04T03:20:41.342Z,17.53
2022-10-04T03:26:02.014Z,16.47
2022-10-04T03:31:05.917Z,14.74
2022-10-04T03:36:18.314Z,13.77
2022-10-04T03:41:23.665Z,14.45
2022-10-04T03:46:28.426Z,16.59
2022-10-04T03:51:31.741Z,17.08
2022-10-04T03:56:37.031Z,15.28
2022-10-04T04:02:12.080Z,14.75
2022-10-04T04:07:29.326Z,16.70
2022-10-04T04:12:41.164Z,16.94
2022-10-04T04:17:50.807Z,15.14
2022-10-04T04:23:28.384Z,13.98
2022-10-04T04:28:43.453Z,14.52
2022-10-04T04:33:59.443Z,16.60
2022-10-04T04:39:44.953Z,17.35
2022-10-04T04:44:57.002Z,15.63
2022-10-04T04:50:16.621Z,14.29
2022-10-04T04:55:56.322Z,13.45
2022-10-04T05:01:02.015Z,14.13
2022-10-04T05:06:05.218Z,16.31
2022-10-04T05:11:08.449Z,17.34
2022-10-04T05:16:30.863Z,16.22
2022-10-04T05:21:38.617Z,14.49
2022-10-04T05:26:45.191Z,14.62
2022-10-04T05:32:06.454Z,16.73
2022-10-04T05:37:34.717Z,17.05
2022-10-04T05:42:46.726Z,15.11
2022-10-04T05:47:53.768Z,14.07
2022-10-04T05:53:36.378Z,15.40
2022-10-04T05:59:26.011Z,17.31
2022-10-04T06:04:44.491Z,16.24
2022-10-04T06:10:26.145Z,14.68
2022-10-04T06:16:22.880Z,15.33
2022-10-04T06:21:29.434Z,17.30
2022-10-04T06:26:56.564Z,16.81
2022-10-04T06:32:30.352Z,15.30
2022-10-04T06:37:42.122Z,16.82
2022-10-04T06:43:25.562Z,17.34
2022-10-04T06:48:55.365Z,15.45
2022-10-04T06:54:18.996Z,14.72
2022-10-04T06:59:52.784Z,16.67
2022-10-04T07:05:13.864Z,17.60
2022-10-04T07:10:51.592Z,16.01
2022-10-04T07:16:00.089Z,15.75
2022-10-04T07:21:12.954Z,17.45
2022-10-04T07:26:56.407Z,16.51
2022-10-04T07:32:14.051Z,14.98
2022-10-04T07:37:18.921Z,16.46
2022-10-04T07:42:55.134Z,17.61
2022-10-04T07:48:23.523Z,15.88
2022-10-04T07:54:26.917Z,16.18
2022-10-04T08:00:00.042Z,17.50
2022-10-04T08:05:09.305Z,15.58
2022-10-04T08:11:05.427Z,16.04
2022-10-04T08:16:55.242Z,17.13
2022-10-04T08:22:41.912Z,15.60
2022-10-04T08:28:09.350Z,17.05
2022-10-04T08:33:56.376Z,16.64
2022-10-04T08:39:01.236Z,15.17
2022-10-04T08:44:25.765Z,14.86
2022-10-04T08:49:59.173Z,16.88
2022-10-04T08:55:35.291Z,16.20
2022-10-04T09:01:15.267Z,15.39
2022-10-04T09:06:38.458Z,16.73
2022-10-04T09:11:41.689Z,15.43
2022-10-04T09:16:53.530Z,16.13
2022-10-04T09:21:56.353Z,17.05
2022-10-04T09:27:43.215Z,15.67
2022-10-04T09:33:17.324Z,15.92
2022-10-04T09:39:29.994Z,16.28
2022-10-04T09:45:21.535Z,15.02
2022-10-04T09:50:51.669Z,16.40
2022-10-04T09:56:27.055Z,15.48
2022-10-04T10:02:00.638Z,14.45
2022-10-04T10:07:39.880Z,15.20
2022-10-04T10:13:45.733Z,15.25
2022-10-04T10:19:29.500Z,14.65
2022-10-04T10:25:29.438Z,16.07
2022-10-04T10:31:29.349Z,14.98
2022-10-04T10:37:09.473Z,15.15
2022-10-04T10:42:59.944Z,17.54
2022-10-04T10:48:14.517Z,16.54
2022-10-04T10:53:30.193Z,15.51
2022-10-04T10:59:16.265Z,14.86
2022-10-04T11:05:15.819Z,15.94
2022-10-04T11:10:39.766Z,15.58
2022-10-04T11:16:26.946Z,14.94
2022-10-04T11:22:25.887Z,14.61
2022-10-04T11:28:20.168Z,15.72
2022-10-04T11:33:46.903Z,16.12
2022-10-04T11:39:23.242Z,15.21
2022-10-04T11:44:59.913Z,14.80
2022-10-04T11:50:22.653Z,15.84
2022-10-04T11:55:57.215Z,17.06
2022-10-04T12:01:39.356Z,15.72
2022-10-04T12:07:01.767Z,14.97
2022-10-04T12:12:40.153Z,14.54
2022-10-04T12:18:18.694Z,15.21
2022-10-04T12:23:59.012Z,16.93
2022-10-04T12:29:31.280Z,15.62
2022-10-04T12:35:02.940Z,14.92
2022-10-04T12:40:42.911Z,14.47
2022-10-04T12:46:04.033Z,14.67
2022-10-04T12:51:53.869Z,17.03
2022-10-04T12:57:47.409Z,16.12
2022-10-04T13:03:34.232Z,15.08
2022-10-04T13:08:51.068Z,14.58
2022-10-04T13:14:19.965Z,15.45
2022-10-04T13:19:36.368Z,17.78
2022-10-04T13:24:58.285Z,16.79
2022-10-04T13:30:23.024Z,15.58
2022-10-04T13:35:46.968Z,14.86
2022-10-04T13:41:15.285Z,14.51
2022-10-04T13:46:48.097Z,16.70
2022-10-04T13:52:33.428Z,17.47
2022-10-04T13:58:14.366Z,16.02
2022-10-04T14:03:38.704Z,15.30
2022-10-04T14:09:11.580Z,14.88
2022-10-04T14:14:40.177Z,14.57
2022-10-04T14:20:24.688Z,16.20
2022-10-04T14:25:56.084Z,17.32
2022-10-04T14:31:52.888Z,15.99
2022-10-04T14:38:01.949Z,15.23
2022-10-04T14:43:20.327Z,14.76
2022-10-04T14:48:38.256Z,14.44
2022-10-04T14:54:00.683Z,14.26
2022-10-04T14:59:15.600Z,16.13
2022-10-04T15:04:57.463Z,15.97
2022-10-04T15:10:19.216Z,14.99
2022-10-04T15:15:37.091Z,14.53
2022-10-04T15:20:57.452Z,14.25
2022-10-04T15:26:21.232Z,14.03
2022-10-04T15:32:20.902Z,13.81
2022-10-04T15:37:30.096Z,13.61
2022-10-04T15:42:53.745Z,14.64
2022-10-04T15:48:21.324Z,17.23
2022-10-04T15:54:14.890Z,16.49
2022-10-04T16:00:16.048Z,15.22
2022-10-04T16:05:25.978Z,14.58
2022-10-04T16:11:14.074Z,14.18
2022-10-04T16:16:26.326Z,13.82
2022-10-04T16:21:42.582Z,13.57
2022-10-04T16:26:50.625Z,13.36
2022-10-04T16:32:10.944Z,13.19
2022-10-04T16:37:55.812Z,14.12
2022-10-04T16:43:10.947Z,17.03
2022-10-04T16:48:59.025Z,16.84
2022-10-04T16:54:48.834Z,15.39
2022-10-04T17:00:00.691Z,14.65
2022-10-04T17:05:34.879Z,14.19
2022-10-04T17:10:40.231Z,13.77
2022-10-04T17:16:19.629Z,13.45
2022-10-04T17:21:34.552Z,13.15
2022-10-04T17:27:13.823Z,12.91
2022-10-04T17:32:45.823Z,12.69
2022-10-04T17:38:02.750Z,12.51
2022-10-04T17:43:47.095Z,13.45
2022-10-04T17:49:30.933Z,16.37
2022-10-04T17:55:05.207Z,16.24
2022-10-04T18:00:45.428Z,14.79
2022-10-04T18:06:32.006Z,13.97
2022-10-04T18:11:47.396Z,13.45
2022-10-04T18:16:56.951Z,13.08
2022-10-04T18:22:15.916Z,12.78
2022-10-04T18:27:25.292Z,12.55
2022-10-04T18:32:28.094Z,13.38
2022-10-04T18:37:39.371Z,16.03
2022-10-04T18:42:58.349Z,16.65
2022-10-04T18:48:14.798Z,15.15
2022-10-04T18:53:53.118Z,14.27
2022-10-04T18:59:17.551Z,13.67
2022-10-04T19:04:49.947Z,13.23
2022-10-04T19:10:35.968Z,12.83
2022-10-04T19:16:00.046Z,12.51
2022-10-04T19:21:47.590Z,13.44
2022-10-04T19:27:02.909Z,16.28
2022-10-04T19:32:44.522Z,16.59
2022-10-04T19:37:53.304Z,14.92
2022-10-04T19:43:13.258Z,14.04
2022-10-04T19:48:25.771Z,13.43
2022-10-04T19:53:45.362Z,12.96
2022-10-04T19:58:52.669Z,12.55
2022-10-04T20:04:15.196Z,13.26
2022-10-04T20:09:31.758Z,15.96
2022-10-04T20:14:34.531Z,16.32
2022-10-04T20:19:41.048Z,14.74
2022-10-04T20:24:47.199Z,13.75
2022-10-04T20:29:51.769Z,13.12
2022-10-04T20:34:59.496Z,12.63
2022-10-04T20:40:02.454Z,13.33
2022-10-04T20:45:11.353Z,15.86
2022-10-04T20:50:40.948Z,16.34
2022-10-04T20:55:46.378Z,14.63
2022-10-04T21:00:56.245Z,13.65
2022-10-04T21:06:08.283Z,13.00
2022-10-04T21:11:21.379Z,12.66
2022-10-04T21:16:40.224Z,14.85
2022-10-04T21:21:51.254Z,16.50
2022-10-04T21:26:58.211Z,15.18
2022-10-04T21:32:01.995Z,13.90
2022-10-04T21:37:04.939Z,13.13
2022-10-04T21:42:07.835Z,12.53
2022-10-04T21:47:10.949Z,13.11
2022-10-04T21:52:13.898Z,15.63
2022-10-04T21:57:16.755Z,16.02
2022-10-04T22:02:19.649Z,14.40
2022-10-04T22:07:22.507Z,13.37
2022-10-04T22:12:25.397Z,12.73
2022-10-04T22:17:28.238Z,12.24
2022-10-04T22:22:32.716Z,12.74
2022-10-04T22:27:38.819Z,15.36
2022-10-04T22:32:41.704Z,16.03
2022-10-04T22:37:46.530Z,14.47
2022-10-04T22:42:53.133Z,13.46
2022-10-04T22:47:59.662Z,12.82
2022-10-04T22:53:24.007Z,12.34
2022-10-04T22:58:27.053Z,11.92
2022-10-04T23:03:34.574Z,12.61
2022-10-04T23:08:37.440Z,15.24
2022-10-04T23:13:40.383Z,15.82
2022-10-04T23:18:43.261Z,14.24
2022-10-04T23:23:47.499Z,13.27
2022-10-04T23:28:51.877Z,12.63
2022-10-04T23:33:57.096Z,12.15
2022-10-04T23:39:01.787Z,11.78
2022-10-04T23:44:13.606Z,12.48
2022-10-04T23:49:18.792Z,15.18
2022-10-04T23:54:21.677Z,15.80
2022-10-04T23:59:26.523Z,14.24
